Time,TemperatureF,DewpointF,PressureIn,WindDirection,WindDirectionDegrees,WindSpeedMPH,WindSpeedGustMPH,Humidity,HourlyPrecipIn,Conditions,Clouds,dailyrainin,SolarRadiationWatts/m^2,SoftwareType,DateUTC
2013-07-10 00:02:00,73.0,70.0,-100.00,WSW,240,1.0,5.0,89,0.00,,,0.14,0.000000,,2013-07-10 05:02:00,
2013-07-10 00:32:00,72.0,70.0,-100.00,WSW,239,4.0,7.0,92,0.00,,,0.14,0.000000,,2013-07-10 05:32:00,
2013-07-10 00:42:00,72.0,70.0,-100.00,WSW,239,4.0,7.0,92,0.00,,,0.14,0.000000,,2013-07-10 05:42:00,
2013-07-10 00:53:00,72.0,70.0,-100.00,WSW,239,4.0,7.0,92,0.00,,,0.14,0.000000,,2013-07-10 05:53:00,
2013-07-10 01:01:00,72.0,70.0,-100.00,WSW,239,4.0,7.0,92,0.00,,,0.14,0.000000,,2013-07-10 06:01:00,
2013-07-10 01:33:00,73.0,70.0,-100.00,West,279,4.0,9.0,89,0.00,,,0.14,0.000000,,2013-07-10 06:33:00,
2013-07-10 01:42:00,73.0,70.0,-100.00,West,279,4.0,9.0,89,0.00,,,0.14,0.000000,,2013-07-10 06:42:00,
2013-07-10 01:52:00,73.0,70.0,-100.00,West,279,4.0,9.0,89,0.00,,,0.14,0.000000,,2013-07-10 06:52:00,
2013-07-10 02:01:00,73.0,70.0,-100.00,West,279,4.0,9.0,89,0.00,,,0.14,0.000000,,2013-07-10 07:01:00,
2013-07-10 02:33:00,71.0,70.0,-100.00,WSW,254,3.0,8.0,96,0.00,,,0.14,0.000000,,2013-07-10 07:33:00,
2013-07-10 02:43:00,71.0,70.0,-100.00,WSW,254,3.0,8.0,96,0.00,,,0.14,0.000000,,2013-07-10 07:43:00,
2013-07-10 02:53:00,71.0,70.0,-100.00,WSW,254,3.0,8.0,96,0.00,,,0.14,0.000000,,2013-07-10 07:53:00,
2013-07-10 03:01:00,71.0,70.0,-100.00,WSW,254,3.0,8.0,96,0.00,,,0.14,0.000000,,2013-07-10 08:01:00,
2013-07-10 03:33:00,71.0,69.0,-100.00,NW,314,4.0,10.0,94,0.00,,,0.14,0.000000,,2013-07-10 08:33:00,
2013-07-10 03:42:00,71.0,69.0,-100.00,NW,314,4.0,10.0,94,0.00,,,0.14,0.000000,,2013-07-10 08:42:00,
2013-07-10 03:53:00,71.0,69.0,-100.00,NW,314,4.0,10.0,94,0.00,,,0.14,0.000000,,2013-07-10 08:53:00,
2013-07-10 04:02:00,71.0,69.0,-100.00,NW,314,4.0,10.0,94,0.00,,,0.14,0.000000,,2013-07-10 09:02:00,
2013-07-10 04:33:00,70.0,67.0,-100.00,NW,325,6.0,13.0,91,0.00,,,0.14,0.000000,,2013-07-10 09:33:00,
2013-07-10 04:43:00,70.0,67.0,-100.00,NW,325,6.0,13.0,91,0.00,,,0.14,0.000000,,2013-07-10 09:43:00,
2013-07-10 04:53:00,70.0,67.0,-100.00,NW,325,6.0,13.0,91,0.00,,,0.14,0.000000,,2013-07-10 09:53:00,
2013-07-10 05:01:00,70.0,67.0,-100.00,NW,325,6.0,13.0,91,0.00,,,0.14,0.000000,,2013-07-10 10:01:00,
2013-07-10 05:32:00,68.0,64.0,-100.00,NNW,332,6.0,13.0,86,0.00,,,0.14,0.000000,,2013-07-10 10:32:00,
2013-07-10 05:51:00,-999.0,-99.9,-100.00,NNW,332,6.0,13.0,-999,-99.99,,,-99.99,0.000000,,2013-07-10 10:51:00,
2013-07-10 06:00:00,-999.0,-99.9,-100.00,NNW,332,6.0,13.0,-999,-99.99,,,-99.99,0.000000,,2013-07-10 11:00:00,
2013-07-10 08:52:00,68.0,57.0,-100.00,NNW,330,8.0,19.0,68,-99.99,,,0.14,281.000000,,2013-07-10 13:52:00,
2013-07-10 09:01:00,68.0,57.0,-100.00,NNW,330,8.0,19.0,68,-99.99,,,0.14,281.000000,,2013-07-10 14:01:00,
2013-07-10 09:33:00,69.0,57.0,-100.00,NNW,335,10.0,20.0,65,0.00,,,-99.99,458.000000,,2013-07-10 14:33:00,
2013-07-10 09:43:00,69.0,57.0,-100.00,NNW,335,10.0,20.0,65,0.00,,,-99.99,458.000000,,2013-07-10 14:43:00,
2013-07-10 09:53:00,69.0,57.0,-100.00,NNW,335,10.0,20.0,65,0.00,,,-99.99,458.000000,,2013-07-10 14:53:00,
2013-07-10 10:01:00,69.0,57.0,-100.00,NNW,335,10.0,20.0,65,0.00,,,-99.99,458.000000,,2013-07-10 15:01:00,
2013-07-10 10:34:00,71.0,55.0,-100.00,NNW,334,9.0,21.0,58,0.00,,,0.14,603.000000,,2013-07-10 15:34:00,
2013-07-10 10:43:00,71.0,55.0,-100.00,NNW,334,9.0,21.0,58,0.00,,,0.14,603.000000,,2013-07-10 15:43:00,
2013-07-10 10:52:00,71.0,55.0,-100.00,NNW,334,9.0,21.0,58,0.00,,,0.14,603.000000,,2013-07-10 15:52:00,
2013-07-10 11:01:00,71.0,55.0,-100.00,NNW,334,9.0,21.0,58,0.00,,,0.14,603.000000,,2013-07-10 16:01:00,
2013-07-10 11:33:00,72.0,54.0,-100.00,NNW,340,11.0,20.0,53,0.00,,,0.01,732.000000,,2013-07-10 16:33:00,
2013-07-10 11:44:00,72.0,54.0,-100.00,NNW,340,11.0,20.0,53,0.00,,,0.01,732.000000,,2013-07-10 16:44:00,
2013-07-10 11:53:00,72.0,54.0,-100.00,NNW,340,11.0,20.0,53,0.00,,,0.01,732.000000,,2013-07-10 16:53:00,
2013-07-10 12:02:00,72.0,54.0,-100.00,NNW,340,11.0,20.0,53,0.00,,,0.01,732.000000,,2013-07-10 17:02:00,
2013-07-10 12:32:00,74.0,55.0,-100.00,NNW,340,10.0,20.0,52,0.00,,,0.01,822.000000,,2013-07-10 17:32:00,
2013-07-10 12:43:00,74.0,55.0,-100.00,NNW,340,10.0,20.0,52,0.00,,,0.01,822.000000,,2013-07-10 17:43:00,
2013-07-10 12:53:00,74.0,55.0,-100.00,NNW,340,10.0,20.0,52,0.00,,,0.01,822.000000,,2013-07-10 17:53:00,
2013-07-10 13:02:00,74.0,55.0,-100.00,NNW,340,10.0,20.0,52,0.00,,,0.01,822.000000,,2013-07-10 18:02:00,
2013-07-10 13:32:00,74.0,55.0,-100.00,NNW,338,8.0,17.0,52,0.00,,,0.01,774.000000,,2013-07-10 18:32:00,
2013-07-10 13:44:00,74.0,55.0,-100.00,NNW,338,8.0,17.0,52,0.00,,,0.01,774.000000,,2013-07-10 18:44:00,
2013-07-10 13:53:00,74.0,55.0,-100.00,NNW,338,8.0,17.0,52,0.00,,,0.01,774.000000,,2013-07-10 18:53:00,
2013-07-10 14:01:00,74.0,55.0,-100.00,NNW,338,8.0,17.0,52,0.00,,,0.01,774.000000,,2013-07-10 19:01:00,
2013-07-10 14:32:00,76.0,55.0,-100.00,NW,316,7.0,17.0,49,0.00,,,0.00,859.000000,,2013-07-10 19:32:00,
2013-07-10 14:42:00,76.0,55.0,-100.00,NW,316,7.0,17.0,49,0.00,,,0.00,859.000000,,2013-07-10 19:42:00,
2013-07-10 14:53:00,76.0,55.0,-100.00,NW,316,7.0,17.0,49,0.00,,,0.00,859.000000,,2013-07-10 19:53:00,
2013-07-10 15:01:00,76.0,55.0,-100.00,NW,316,7.0,17.0,49,0.00,,,0.00,859.000000,,2013-07-10 20:01:00,
2013-07-10 15:32:00,76.0,56.0,-100.00,NNW,345,7.0,15.0,50,0.00,,,0.00,512.000000,,2013-07-10 20:32:00,
2013-07-10 15:43:00,76.0,56.0,-100.00,NNW,345,7.0,15.0,50,0.00,,,0.00,512.000000,,2013-07-10 20:43:00,
2013-07-10 15:52:00,76.0,56.0,-100.00,NNW,345,7.0,15.0,50,0.00,,,0.00,512.000000,,2013-07-10 20:52:00,
2013-07-10 16:01:00,76.0,56.0,-100.00,NNW,345,7.0,15.0,50,0.00,,,0.00,512.000000,,2013-07-10 21:01:00,
2013-07-10 16:32:00,77.0,56.0,-100.00,NNW,346,8.0,16.0,48,0.00,,,0.00,574.000000,,2013-07-10 21:32:00,
2013-07-10 16:42:00,77.0,56.0,-100.00,NNW,346,8.0,16.0,48,0.00,,,0.00,574.000000,,2013-07-10 21:42:00,
2013-07-10 16:52:00,77.0,56.0,-100.00,NNW,346,8.0,16.0,48,0.00,,,0.00,574.000000,,2013-07-10 21:52:00,
2013-07-10 17:01:00,77.0,56.0,-100.00,NNW,346,8.0,16.0,48,0.00,,,0.00,574.000000,,2013-07-10 22:01:00,
2013-07-10 18:32:00,75.0,53.0,-100.00,North,350,5.0,16.0,47,-99.99,,,0.00,354.000000,,2013-07-10 23:32:00,
2013-07-10 18:43:00,75.0,53.0,-100.00,North,350,5.0,16.0,47,-99.99,,,0.00,354.000000,,2013-07-10 23:43:00,
2013-07-10 18:52:00,75.0,53.0,-100.00,North,350,5.0,16.0,47,-99.99,,,0.00,354.000000,,2013-07-10 23:52:00,
2013-07-10 19:01:00,75.0,53.0,-100.00,North,350,5.0,16.0,47,-99.99,,,0.00,354.000000,,2013-07-11 00:01:00,
2013-07-10 19:32:00,74.0,56.0,-100.00,NNW,335,3.0,13.0,53,0.00,,,0.00,158.000000,,2013-07-11 00:32:00,
2013-07-10 19:43:00,74.0,56.0,-100.00,NNW,335,3.0,13.0,53,0.00,,,0.00,158.000000,,2013-07-11 00:43:00,
2013-07-10 19:52:00,74.0,56.0,-100.00,NNW,335,3.0,13.0,53,0.00,,,0.00,158.000000,,2013-07-11 00:52:00,
2013-07-10 20:01:00,74.0,56.0,-100.00,NNW,335,3.0,13.0,53,0.00,,,0.00,158.000000,,2013-07-11 01:01:00,
2013-07-10 20:32:00,71.0,56.0,-100.00,NNW,346,3.0,7.0,60,0.00,,,0.00,96.000000,,2013-07-11 01:32:00,
2013-07-10 20:43:00,71.0,56.0,-100.00,NNW,346,3.0,7.0,60,0.00,,,0.00,96.000000,,2013-07-11 01:43:00,
2013-07-10 20:52:00,71.0,56.0,-100.00,NNW,346,3.0,7.0,60,0.00,,,0.00,96.000000,,2013-07-11 01:52:00,
2013-07-10 21:02:00,71.0,56.0,-100.00,NNW,346,3.0,7.0,60,0.00,,,0.00,96.000000,,2013-07-11 02:02:00,
2013-07-10 21:32:00,64.0,58.0,-100.00,North,355,0.0,3.0,82,0.00,,,0.00,10.000000,,2013-07-11 02:32:00,
2013-07-10 21:44:00,64.0,58.0,-100.00,North,355,0.0,3.0,82,0.00,,,0.00,10.000000,,2013-07-11 02:44:00,
2013-07-10 21:53:00,64.0,58.0,-100.00,North,355,0.0,3.0,82,0.00,,,0.00,10.000000,,2013-07-11 02:53:00,
2013-07-10 22:02:00,64.0,58.0,-100.00,North,355,0.0,3.0,82,0.00,,,0.00,10.000000,,2013-07-11 03:02:00,
2013-07-10 22:33:00,58.0,57.0,-100.00,NNW,347,0.0,1.0,95,0.00,,,0.00,0.000000,,2013-07-11 03:33:00,
2013-07-10 22:42:00,58.0,57.0,-100.00,NNW,347,0.0,1.0,95,0.00,,,0.00,0.000000,,2013-07-11 03:42:00,
2013-07-10 22:53:00,58.0,57.0,-100.00,NNW,347,0.0,1.0,95,0.00,,,0.00,0.000000,,2013-07-11 03:53:00,
2013-07-10 23:01:00,58.0,57.0,-100.00,NNW,347,0.0,1.0,95,0.00,,,0.00,0.000000,,2013-07-11 04:01:00,
2013-07-10 23:32:00,55.0,55.0,-100.00,ESE,118,0.0,2.0,99,0.00,,,0.00,0.000000,,2013-07-11 04:32:00,
2013-07-10 23:43:00,55.0,55.0,-100.00,ESE,118,0.0,2.0,99,0.00,,,0.00,0.000000,,2013-07-11 04:43:00,
2013-07-10 23:53:00,55.0,55.0,-100.00,ESE,118,0.0,2.0,99,0.00,,,0.00,0.000000,,2013-07-11 04:53:00,